createdAt,value
2022-09-07T00:01:23.738Z,18.60
2022-09-07T00:03:55.445Z,18.60
2022-09-07T00:06:24.265Z,18.60
2022-09-07T00:08:54.025Z,18.70
2022-09-07T00:11:22.523Z,18.70
2022-09-07T00:13:51.342Z,18.70
2022-09-07T00:16:22.011Z,18.70
2022-09-07T00:18:51.171Z,18.70
2022-09-07T00:21:19.922Z,18.70
2022-09-07T00:23:50.196Z,18.60
2022-09-07T00:26:21.964Z,18.60
2022-09-07T00:28:51.343Z,18.60
2022-09-07T00:31:22.391Z,18.60
2022-09-07T00:33:52.483Z,18.60
2022-09-07T00:36:24.611Z,18.60
2022-09-07T00:38:53.323Z,18.70
2022-09-07T00:41:24.025Z,18.70
2022-09-07T00:43:54.044Z,18.70
2022-09-07T00:46:24.126Z,18.70
2022-09-07T00:48:56.495Z,18.80
2022-09-07T00:51:29.879Z,18.80
2022-09-07T00:54:03.995Z,18.80
2022-09-07T00:56:37.412Z,18.80
2022-09-07T00:59:06.314Z,18.80
2022-09-07T01:01:35.457Z,18.80
2022-09-07T01:04:05.272Z,18.80
2022-09-07T01:06:36.154Z,18.90
2022-09-07T01:09:07.707Z,18.90
2022-09-07T01:11:38.404Z,18.90
2022-09-07T01:14:10.003Z,18.90
2022-09-07T01:16:55.605Z,19.00
2022-09-07T01:19:49.350Z,19.00
2022-09-07T01:22:33.085Z,19.00
2022-09-07T01:25:10.471Z,19.10
2022-09-07T01:27:59.576Z,19.20
2022-09-07T01:30:29.004Z,19.20
2022-09-07T01:33:08.358Z,19.30
2022-09-07T01:35:46.895Z,19.30
2022-09-07T01:38:25.087Z,19.30
2022-09-07T01:41:00.363Z,19.30
2022-09-07T01:43:36.655Z,19.60
2022-09-07T01:46:09.789Z,20.00
2022-09-07T01:48:41.632Z,20.30
2022-09-07T01:51:12.767Z,20.40
2022-09-07T01:53:43.367Z,20.40
2022-09-07T01:56:14.958Z,20.30
2022-09-07T01:58:49.073Z,20.20
2022-09-07T02:01:24.610Z,20.00
2022-09-07T02:03:58.517Z,19.90
2022-09-07T02:06:34.844Z,19.80
2022-09-07T02:09:06.453Z,19.70
2022-09-07T02:11:38.433Z,19.60
2022-09-07T02:14:14.712Z,19.60
2022-09-07T02:17:08.973Z,19.50
2022-09-07T02:19:43.175Z,19.40
2022-09-07T02:22:16.393Z,19.40
2022-09-07T02:24:49.455Z,19.30
2022-09-07T02:27:24.115Z,19.20
2022-09-07T02:29:54.354Z,19.10
2022-09-07T02:32:22.732Z,19.00
2022-09-07T02:34:51.817Z,18.90
2022-09-07T02:37:21.997Z,18.80
2022-09-07T02:39:50.453Z,18.80
2022-09-07T02:42:18.956Z,18.70
2022-09-07T02:44:48.276Z,18.60
2022-09-07T02:47:33.153Z,18.40
2022-09-07T02:50:31.217Z,18.30
2022-09-07T02:53:16.612Z,18.20
2022-09-07T02:55:56.880Z,18.20
2022-09-07T02:58:34.582Z,18.20
2022-09-07T03:01:10.502Z,18.30
2022-09-07T03:03:48.921Z,18.20
2022-09-07T03:06:22.019Z,18.10
2022-09-07T03:08:54.283Z,18.00
2022-09-07T03:11:23.488Z,17.90
2022-09-07T03:13:52.074Z,17.90
2022-09-07T03:16:23.540Z,17.80
2022-09-07T03:18:53.593Z,17.80
2022-09-07T03:21:21.962Z,17.80
2022-09-07T03:23:51.908Z,17.90
2022-09-07T03:26:25.234Z,17.90
2022-09-07T03:28:53.846Z,17.90
2022-09-07T03:31:22.573Z,17.90
2022-09-07T03:33:51.251Z,17.90
2022-09-07T03:36:21.169Z,18.00
2022-09-07T03:38:49.613Z,18.00
2022-09-07T03:41:18.246Z,18.00
2022-09-07T03:43:46.643Z,18.00
2022-09-07T03:46:19.417Z,18.00
2022-09-07T03:48:49.023Z,18.00
2022-09-07T03:51:19.406Z,18.00
2022-09-07T03:53:49.440Z,18.00
2022-09-07T03:56:22.498Z,18.00
2022-09-07T03:58:51.825Z,17.90
2022-09-07T04:01:22.692Z,17.90
2022-09-07T04:03:51.772Z,17.90
2022-09-07T04:06:20.763Z,17.90
2022-09-07T04:08:50.633Z,17.80
2022-09-07T04:11:20.380Z,17.80
2022-09-07T04:13:48.754Z,17.70
2022-09-07T04:16:20.160Z,17.70
2022-09-07T04:18:50.331Z,17.60
2022-09-07T04:21:19.222Z,17.70
2022-09-07T04:23:49.653Z,17.70
2022-09-07T04:26:20.104Z,17.70
2022-09-07T04:28:49.395Z,17.70
2022-09-07T04:31:19.787Z,17.70
2022-09-07T04:33:49.534Z,17.70
2022-09-07T04:36:19.240Z,17.70
2022-09-07T04:38:49.243Z,17.70
2022-09-07T04:41:19.180Z,17.70
2022-09-07T04:43:48.606Z,17.70
2022-09-07T04:46:20.831Z,17.60
2022-09-07T04:48:50.086Z,17.60
2022-09-07T04:51:19.334Z,17.60
2022-09-07T04:53:51.073Z,17.50
2022-09-07T04:56:20.496Z,17.50
2022-09-07T04:58:49.532Z,17.50
2022-09-07T05:01:19.923Z,17.50
2022-09-07T05:03:48.933Z,17.50
2022-09-07T05:06:19.524Z,17.40
2022-09-07T05:08:50.973Z,17.40
2022-09-07T05:11:22.864Z,17.40
2022-09-07T05:13:56.624Z,17.40
2022-09-07T05:16:26.232Z,17.40
2022-09-07T05:18:56.744Z,17.40
2022-09-07T05:21:27.532Z,17.40
2022-09-07T05:23:59.354Z,17.40
2022-09-07T05:26:29.950Z,17.40
2022-09-07T05:31:51.188Z,17.50
2022-09-07T05:34:35.259Z,17.50
2022-09-07T05:37:04.054Z,17.50
2022-09-07T05:39:34.151Z,17.60
2022-09-07T05:42:02.924Z,17.60
2022-09-07T05:44:47.388Z,17.60
2022-09-07T05:47:17.016Z,17.60
2022-09-07T05:49:45.706Z,17.70
2022-09-07T05:52:14.494Z,17.70
2022-09-07T05:54:44.749Z,17.70
2022-09-07T05:57:13.741Z,17.80
2022-09-07T05:59:42.272Z,17.80
2022-09-07T06:02:14.624Z,17.90
2022-09-07T06:04:44.152Z,17.90
2022-09-07T06:07:22.364Z,18.00
2022-09-07T06:12:48.928Z,18.20
2022-09-07T06:15:18.152Z,18.30
2022-09-07T06:17:46.632Z,18.50
2022-09-07T06:20:17.902Z,18.50
2022-09-07T06:22:46.301Z,18.70
2022-09-07T06:25:16.284Z,18.90
2022-09-07T06:27:44.945Z,19.30
2022-09-07T06:30:13.925Z,19.80
2022-09-07T06:35:12.347Z,20.10
2022-09-07T06:37:41.133Z,20.20
2022-09-07T06:40:11.347Z,20.30
2022-09-07T06:42:41.457Z,20.70
2022-09-07T06:45:11.634Z,21.00
2022-09-07T06:47:40.960Z,21.40
2022-09-07T06:50:10.812Z,21.40
2022-09-07T06:55:28.907Z,21.50
2022-09-07T06:57:58.941Z,21.40
2022-09-07T07:00:27.393Z,21.40
2022-09-07T07:02:55.919Z,21.50
2022-09-07T07:05:24.381Z,21.70
2022-09-07T07:07:52.984Z,21.80
2022-09-07T07:10:24.742Z,22.00
2022-09-07T07:12:57.605Z,22.10
2022-09-07T07:15:29.563Z,22.20
2022-09-07T07:18:09.624Z,22.00
2022-09-07T07:20:47.268Z,22.10
2022-09-07T07:23:15.870Z,22.00
2022-09-07T07:25:44.564Z,22.00
2022-09-07T07:31:09.066Z,21.90
2022-09-07T07:33:39.879Z,21.90
2022-09-07T07:36:13.709Z,21.60
2022-09-07T07:44:20.508Z,21.80
2022-09-07T07:46:51.546Z,21.80
2022-09-07T07:49:20.241Z,22.00
2022-09-07T07:54:37.949Z,22.60
2022-09-07T07:57:07.299Z,22.90
2022-09-07T07:59:36.601Z,23.30
2022-09-07T08:02:08.904Z,23.60
2022-09-07T08:04:37.965Z,23.90
2022-09-07T08:07:10.645Z,24.00
2022-09-07T08:09:41.406Z,23.80
2022-09-07T08:12:11.507Z,23.70
2022-09-07T08:14:41.398Z,23.70
2022-09-07T08:17:13.117Z,23.60
2022-09-07T08:19:42.282Z,23.60
2022-09-07T08:22:11.504Z,23.70
2022-09-07T08:24:40.192Z,23.50
2022-09-07T08:27:11.484Z,23.30
2022-09-07T08:29:39.790Z,23.30
2022-09-07T08:32:08.316Z,23.20
2022-09-07T08:34:40.967Z,23.30
2022-09-07T08:37:09.272Z,23.30
2022-09-07T08:39:37.707Z,23.40
2022-09-07T08:42:21.186Z,23.50
2022-09-07T08:44:54.427Z,23.70
2022-09-07T08:47:31.894Z,23.90
2022-09-07T08:50:05.847Z,24.10
2022-09-07T08:52:44.003Z,24.60
2022-09-07T08:55:16.762Z,25.00
2022-09-07T08:57:50.771Z,24.80
2022-09-07T09:00:20.303Z,24.60
2022-09-07T09:03:28.709Z,24.70
2022-09-07T09:05:47.158Z,24.80
2022-09-07T09:08:30.094Z,25.00
2022-09-07T09:11:07.441Z,25.00
2022-09-07T09:13:55.037Z,25.60
2022-09-07T09:16:30.784Z,25.70
2022-09-07T09:19:07.427Z,25.80
2022-09-07T09:21:37.102Z,26.30
2022-09-07T09:24:15.721Z,26.50
2022-09-07T09:29:22.373Z,26.50
2022-09-07T09:31:50.680Z,26.60
2022-09-07T09:34:23.910Z,26.60
2022-09-07T09:36:56.913Z,26.70
2022-09-07T09:39:31.599Z,26.70
2022-09-07T09:42:14.191Z,26.70
2022-09-07T09:44:43.612Z,27.00
2022-09-07T09:47:30.253Z,26.90
2022-09-07T09:50:01.006Z,27.10
2022-09-07T09:52:45.156Z,27.20
2022-09-07T09:55:35.063Z,26.90
2022-09-07T10:06:23.056Z,27.40
2022-09-07T10:08:58.580Z,27.40
2022-09-07T10:14:36.523Z,27.70
2022-09-07T10:17:13.932Z,27.50
2022-09-07T10:19:44.050Z,27.40
2022-09-07T10:22:34.053Z,27.20
2022-09-07T10:25:06.034Z,27.70
2022-09-07T10:27:36.587Z,27.90
2022-09-07T10:30:10.929Z,28.00
2022-09-07T10:32:54.830Z,27.90
2022-09-07T10:35:28.354Z,28.00
2022-09-07T10:38:07.263Z,27.70
2022-09-07T10:40:42.022Z,27.40
2022-09-07T10:43:21.099Z,27.30
2022-09-07T10:46:04.805Z,26.70
2022-09-07T10:48:38.732Z,26.70
2022-09-07T10:51:14.656Z,27.00
2022-09-07T10:56:51.780Z,26.30
2022-09-07T11:02:29.090Z,26.50
2022-09-07T11:05:06.343Z,26.50
2022-09-07T11:07:55.548Z,26.50
2022-09-07T11:10:31.676Z,26.50
2022-09-07T11:13:03.926Z,26.60
2022-09-07T11:15:34.361Z,27.10
2022-09-07T11:18:08.478Z,27.20
2022-09-07T11:20:40.641Z,27.70
2022-09-07T11:23:18.379Z,27.60
2022-09-07T11:25:55.611Z,28.10
2022-09-07T11:28:30.760Z,28.20
2022-09-07T11:31:03.120Z,28.60
2022-09-07T11:33:36.182Z,28.50
2022-09-07T11:36:12.225Z,28.60
2022-09-07T11:38:46.434Z,28.60
2022-09-07T11:41:22.213Z,29.00
2022-09-07T11:44:02.066Z,29.00
2022-09-07T11:46:38.848Z,29.20
2022-09-07T11:49:14.530Z,29.40
2022-09-07T11:51:46.181Z,29.70
2022-09-07T11:54:35.212Z,30.10
2022-09-07T11:57:13.359Z,30.40
2022-09-07T11:59:55.419Z,30.40
2022-09-07T12:03:00.192Z,30.80
2022-09-07T12:05:48.163Z,30.70
2022-09-07T12:08:27.727Z,30.90
2022-09-07T12:11:32.249Z,31.00
2022-09-07T12:14:28.993Z,30.80
2022-09-07T12:17:10.113Z,30.80
2022-09-07T12:19:38.551Z,30.60
2022-09-07T12:22:19.673Z,30.60
2022-09-07T12:24:50.062Z,30.80
2022-09-07T12:27:38.313Z,31.00
2022-09-07T12:30:49.296Z,31.00
2022-09-07T12:33:27.634Z,31.10
2022-09-07T12:35:58.975Z,30.70
2022-09-07T12:39:07.504Z,31.00
2022-09-07T12:41:44.647Z,30.80
2022-09-07T12:44:27.198Z,30.70
2022-09-07T12:47:02.192Z,29.70
2022-09-07T12:49:56.097Z,29.80
2022-09-07T12:52:56.370Z,29.60
2022-09-07T12:58:47.123Z,28.50
2022-09-07T13:01:31.710Z,28.50
2022-09-07T13:04:31.214Z,29.10
2022-09-07T13:07:36.756Z,29.40
2022-09-07T13:10:18.240Z,30.10
2022-09-07T13:12:57.340Z,30.40
2022-09-07T13:15:42.116Z,30.50
2022-09-07T13:18:40.639Z,30.50
2022-09-07T13:21:33.803Z,30.90
2022-09-07T13:24:56.376Z,31.10
2022-09-07T13:27:46.795Z,31.40
2022-09-07T13:30:26.082Z,31.90
2022-09-07T13:33:33.388Z,31.80
2022-09-07T13:36:02.749Z,31.60
2022-09-07T13:38:32.991Z,31.80
2022-09-07T13:41:07.471Z,31.90
2022-09-07T13:43:37.169Z,32.50
2022-09-07T13:46:14.283Z,31.90
2022-09-07T13:48:48.769Z,31.80
2022-09-07T13:51:21.522Z,31.50
2022-09-07T13:54:04.601Z,31.30
2022-09-07T13:56:41.490Z,30.80
2022-09-07T13:59:19.860Z,30.70
2022-09-07T14:01:50.498Z,30.30
2022-09-07T14:04:25.225Z,30.60
2022-09-07T14:07:03.351Z,30.40
2022-09-07T14:09:31.979Z,30.40
2022-09-07T14:12:01.986Z,30.50
2022-09-07T14:14:33.100Z,30.50
2022-09-07T14:17:06.223Z,30.10
2022-09-07T14:19:39.280Z,30.60
2022-09-07T14:22:12.314Z,30.60
2022-09-07T14:24:42.799Z,30.40
2022-09-07T14:27:23.384Z,30.40
2022-09-07T14:29:52.372Z,30.40
2022-09-07T14:32:27.096Z,30.40
2022-09-07T14:34:55.806Z,30.40
2022-09-07T14:37:25.025Z,30.00
2022-09-07T14:39:53.926Z,30.20
2022-09-07T14:42:25.741Z,30.00
2022-09-07T14:45:19.309Z,29.90
2022-09-07T14:47:49.492Z,30.50
2022-09-07T14:50:20.766Z,30.60
2022-09-07T14:55:41.061Z,30.20
2022-09-07T14:58:19.530Z,30.70
2022-09-07T15:01:37.094Z,31.20
2022-09-07T15:04:01.005Z,31.50
2022-09-07T15:09:31.349Z,31.80
2022-09-07T15:12:19.356Z,32.00
2022-09-07T15:14:49.459Z,32.10
2022-09-07T15:20:38.451Z,31.50
2022-09-07T15:23:10.619Z,31.60
2022-09-07T15:25:45.440Z,31.60
2022-09-07T15:34:09.891Z,31.50
2022-09-07T15:36:40.711Z,31.20
2022-09-07T15:39:14.368Z,30.40
2022-09-07T15:41:43.181Z,30.30
2022-09-07T15:44:13.874Z,30.00
2022-09-07T15:47:43.166Z,29.50
2022-09-07T15:49:32.701Z,29.20
2022-09-07T15:52:08.163Z,28.90
2022-09-07T15:54:39.866Z,28.50
2022-09-07T15:59:56.971Z,27.70
2022-09-07T16:05:15.467Z,26.90
2022-09-07T16:10:32.640Z,26.80
2022-09-07T16:13:02.342Z,26.70
2022-09-07T16:15:33.551Z,26.60
2022-09-07T16:18:04.535Z,26.40
2022-09-07T16:20:32.935Z,26.20
2022-09-07T16:23:17.403Z,26.10
2022-09-07T16:25:57.701Z,25.90
2022-09-07T16:28:29.289Z,25.80
2022-09-07T16:30:58.063Z,25.70
2022-09-07T16:33:36.022Z,25.60
2022-09-07T16:36:07.333Z,25.60
2022-09-07T16:38:51.376Z,25.50
2022-09-07T16:41:22.969Z,25.40
2022-09-07T16:43:51.665Z,25.20
2022-09-07T16:46:21.913Z,25.20
2022-09-07T16:48:52.670Z,25.10
2022-09-07T16:51:22.960Z,25.10
2022-09-07T16:53:54.701Z,25.10
2022-09-07T16:56:24.734Z,25.00
2022-09-07T16:58:55.497Z,25.00
2022-09-07T17:01:26.209Z,24.80
2022-09-07T17:03:56.487Z,24.80
2022-09-07T17:06:27.061Z,24.70
2022-09-07T17:08:56.176Z,24.60
2022-09-07T17:11:26.485Z,24.60
2022-09-07T17:13:56.861Z,24.60
2022-09-07T17:16:27.353Z,24.70
2022-09-07T17:21:48.327Z,24.60
2022-09-07T17:24:17.238Z,24.60
2022-09-07T17:26:46.391Z,24.60
2022-09-07T17:29:15.086Z,24.50
2022-09-07T17:34:33.722Z,24.40
2022-09-07T17:37:02.311Z,24.30
2022-09-07T17:39:30.751Z,24.30
2022-09-07T17:41:59.314Z,24.20
2022-09-07T17:44:33.289Z,24.10
2022-09-07T17:47:05.402Z,24.00
2022-09-07T17:49:35.211Z,23.90
2022-09-07T17:52:04.571Z,23.80
2022-09-07T17:54:33.098Z,23.70
2022-09-07T17:57:01.715Z,23.60
2022-09-07T18:02:19.125Z,23.40
2022-09-07T18:04:49.408Z,23.30
2022-09-07T18:07:17.833Z,23.20
2022-09-07T18:09:46.668Z,23.10
2022-09-07T18:12:14.954Z,23.00
2022-09-07T18:14:44.579Z,22.90
2022-09-07T18:17:13.392Z,22.70
2022-09-07T18:19:41.759Z,22.70
2022-09-07T18:22:13.044Z,22.60
2022-09-07T18:24:41.679Z,22.50
2022-09-07T18:27:10.284Z,22.40
2022-09-07T18:29:38.775Z,22.30
2022-09-07T18:32:09.846Z,22.30
2022-09-07T18:34:41.431Z,22.20
2022-09-07T18:37:12.999Z,22.10
2022-09-07T18:39:42.103Z,22.00
2022-09-07T18:42:12.017Z,21.90
2022-09-07T18:47:29.604Z,21.70
2022-09-07T18:50:00.320Z,21.50
2022-09-07T18:55:21.462Z,21.40
2022-09-07T18:57:51.039Z,21.20
2022-09-07T19:00:20.312Z,21.10
2022-09-07T19:02:52.852Z,21.10
2022-09-07T19:08:13.465Z,21.00
2022-09-07T19:10:42.262Z,20.90
2022-09-07T19:13:11.229Z,20.80
2022-09-07T19:15:39.625Z,20.70
2022-09-07T19:18:09.135Z,20.60
2022-09-07T19:20:39.206Z,20.50
2022-09-07T19:23:07.962Z,20.40
2022-09-07T19:25:42.762Z,20.30
2022-09-07T19:28:12.507Z,20.30
2022-09-07T19:30:40.963Z,20.20
2022-09-07T19:33:12.180Z,20.10
2022-09-07T19:35:43.025Z,20.00
2022-09-07T19:38:12.664Z,20.00
2022-09-07T19:40:46.094Z,19.90
2022-09-07T19:43:14.634Z,19.90
2022-09-07T19:45:43.061Z,19.80
2022-09-07T19:48:11.498Z,19.70
2022-09-07T19:50:41.035Z,19.60
2022-09-07T19:53:10.183Z,19.60
2022-09-07T19:55:39.005Z,19.60
2022-09-07T19:58:09.926Z,19.50
2022-09-07T20:00:40.502Z,19.40
2022-09-07T20:03:10.755Z,19.40
2022-09-07T20:05:40.170Z,19.40
2022-09-07T20:08:09.008Z,19.30
2022-09-07T20:10:37.966Z,19.30
2022-09-07T20:13:09.236Z,19.20
2022-09-07T20:15:42.544Z,19.20
2022-09-07T20:18:11.637Z,19.10
2022-09-07T20:20:39.993Z,19.00
2022-09-07T20:23:08.663Z,18.90
2022-09-07T20:25:37.573Z,18.70
2022-09-07T20:28:06.038Z,18.70
2022-09-07T20:30:35.885Z,18.60
2022-09-07T20:33:04.333Z,18.60
2022-09-07T20:35:33.563Z,18.50
2022-09-07T20:38:02.720Z,18.40
2022-09-07T20:40:32.114Z,18.30
2022-09-07T20:43:00.524Z,18.30
2022-09-07T20:45:31.827Z,18.20
2022-09-07T20:48:01.856Z,18.20
2022-09-07T20:50:30.410Z,18.20
2022-09-07T20:52:58.899Z,18.10
2022-09-07T20:55:27.286Z,18.10
2022-09-07T20:57:56.513Z,18.00
2022-09-07T21:00:25.873Z,18.00
2022-09-07T21:02:54.256Z,17.90
2022-09-07T21:05:23.995Z,17.80
2022-09-07T21:07:53.196Z,17.70
2022-09-07T21:10:22.566Z,17.70
2022-09-07T21:12:53.327Z,17.60
2022-09-07T21:15:21.769Z,17.60
2022-09-07T21:17:50.375Z,17.50
2022-09-07T21:20:19.854Z,17.40
2022-09-07T21:22:49.670Z,17.40
2022-09-07T21:25:18.148Z,17.40
2022-09-07T21:27:46.467Z,17.40
2022-09-07T21:30:15.114Z,17.30
2022-09-07T21:32:43.468Z,17.30
2022-09-07T21:35:11.919Z,17.30
2022-09-07T21:37:40.375Z,17.20
2022-09-07T21:40:11.236Z,17.10
2022-09-07T21:42:39.868Z,17.10
2022-09-07T21:45:10.390Z,17.10
2022-09-07T21:47:38.775Z,17.00
2022-09-07T21:50:07.814Z,17.00
2022-09-07T21:52:37.445Z,16.90
2022-09-07T21:55:07.796Z,16.90
2022-09-07T21:57:37.568Z,16.90
2022-09-07T22:00:08.418Z,16.90
2022-09-07T22:02:36.933Z,16.90
2022-09-07T22:05:05.629Z,16.90
2022-09-07T22:07:36.777Z,16.90
2022-09-07T22:10:05.976Z,16.90
2022-09-07T22:12:34.413Z,16.80
2022-09-07T22:15:05.243Z,16.80
2022-09-07T22:17:33.464Z,16.70
2022-09-07T22:20:01.953Z,16.70
2022-09-07T22:22:30.464Z,16.70
2022-09-07T22:24:58.873Z,16.60
2022-09-07T22:27:27.225Z,16.60
2022-09-07T22:29:58.394Z,16.60
2022-09-07T22:32:28.082Z,16.60
2022-09-07T22:34:56.905Z,16.50
2022-09-07T22:37:25.804Z,16.50
2022-09-07T22:39:54.378Z,16.40
2022-09-07T22:42:22.925Z,16.40
2022-09-07T22:44:51.323Z,16.40
2022-09-07T22:47:19.923Z,16.40
2022-09-07T22:49:49.774Z,16.40
2022-09-07T22:52:18.385Z,16.30
2022-09-07T22:54:46.647Z,16.30
2022-09-07T22:57:15.148Z,16.30
2022-09-07T22:59:43.762Z,16.30
2022-09-07T23:02:12.226Z,16.20
2022-09-07T23:04:40.878Z,16.10
2022-09-07T23:07:10.856Z,16.20
2022-09-07T23:09:39.665Z,16.10
2022-09-07T23:12:08.313Z,16.10
2022-09-07T23:14:37.153Z,16.10
2022-09-07T23:17:05.607Z,16.10
2022-09-07T23:19:34.023Z,16.00
2022-09-07T23:22:02.591Z,16.00
2022-09-07T23:24:33.893Z,15.90
2022-09-07T23:27:02.268Z,15.90
2022-09-07T23:29:30.633Z,15.80
2022-09-07T23:31:59.131Z,15.80
2022-09-07T23:34:27.706Z,15.70
2022-09-07T23:36:56.082Z,15.70
2022-09-07T23:39:27.493Z,15.70
2022-09-07T23:42:00.154Z,15.60
2022-09-07T23:44:28.757Z,15.60
2022-09-07T23:46:57.064Z,15.60
2022-09-07T23:49:26.371Z,15.50
2022-09-07T23:51:54.931Z,15.50
2022-09-07T23:54:23.382Z,15.50
2022-09-07T23:56:51.733Z,15.50
2022-09-07T23:59:21.408Z,15.50
